createdAt,value
2023-04-25T00:00:58.446Z,30.15
2023-04-25T00:01:58.452Z,35.62
2023-04-25T00:02:57.592Z,34.06
2023-04-25T00:03:58.862Z,28.64
2023-04-25T00:04:58.578Z,42.76
2023-04-25T00:05:58.519Z,32.43
2023-04-25T00:06:58.404Z,32.93
2023-04-25T00:07:58.411Z,29.16
2023-04-25T00:08:58.410Z,27.81
2023-04-25T00:09:57.389Z,34.25
2023-04-25T00:10:58.374Z,33.32
2023-04-25T00:11:58.371Z,29.89
2023-04-25T00:12:58.460Z,27.83
2023-04-25T00:13:57.371Z,40.18
2023-04-25T00:14:58.371Z,32.18
2023-04-25T00:15:58.395Z,35.58
2023-04-25T00:16:57.328Z,32.52
2023-04-25T00:17:58.351Z,29.43
2023-04-25T00:18:58.335Z,30.84
2023-04-25T00:19:58.308Z,36.68
2023-04-25T00:20:58.309Z,31.05
2023-04-25T00:21:58.455Z,29.30
2023-04-25T00:22:57.373Z,29.00
2023-04-25T00:23:58.305Z,33.15
2023-04-25T00:24:58.277Z,31.14
2023-04-25T00:25:58.269Z,28.91
2023-04-25T00:26:57.268Z,29.14
2023-04-25T00:27:58.266Z,32.93
2023-04-25T00:28:58.278Z,35.77
2023-04-25T00:29:58.238Z,30.47
2023-04-25T00:30:58.241Z,32.59
2023-04-25T00:31:58.332Z,34.19
2023-04-25T00:32:57.272Z,32.48
2023-04-25T00:33:58.255Z,30.83
2023-04-25T00:34:58.207Z,28.91
2023-04-25T00:35:57.187Z,35.66
2023-04-25T00:36:57.179Z,30.14
2023-04-25T00:37:58.187Z,26.73
2023-04-25T00:38:58.202Z,31.63
2023-04-25T00:39:57.219Z,30.30
2023-04-25T00:40:58.158Z,28.35
2023-04-25T00:41:57.143Z,34.59
2023-04-25T00:42:57.165Z,27.13
2023-04-25T00:43:57.141Z,38.91
2023-04-25T00:44:58.156Z,34.18
2023-04-25T00:45:58.123Z,33.03
2023-04-25T00:46:57.169Z,35.23
2023-04-25T00:47:57.194Z,37.10
2023-04-25T00:48:58.099Z,30.43
2023-04-25T00:49:57.102Z,33.09
2023-04-25T00:50:57.116Z,28.16
2023-04-25T00:51:57.089Z,31.88
2023-04-25T00:52:57.073Z,31.32
2023-04-25T00:53:57.081Z,38.15
2023-04-25T00:54:58.066Z,31.66
2023-04-25T00:55:58.106Z,28.39
2023-04-25T00:56:58.032Z,30.45
2023-04-25T00:57:58.046Z,40.09
2023-04-25T00:58:58.025Z,31.69
2023-04-25T00:59:57.011Z,32.94
2023-04-25T01:00:58.081Z,33.07
2023-04-25T01:01:57.107Z,32.12
2023-04-25T01:02:57.140Z,38.91
2023-04-25T01:03:58.081Z,28.61
2023-04-25T01:04:58.000Z,34.69
2023-04-25T01:05:57.976Z,31.01
2023-04-25T01:06:56.991Z,34.44
2023-04-25T01:07:56.976Z,35.31
2023-04-25T01:08:58.016Z,35.65
2023-04-25T01:09:56.970Z,34.24
2023-04-25T01:10:57.956Z,36.56
2023-04-25T01:11:56.951Z,31.71
2023-04-25T01:12:57.965Z,35.43
2023-04-25T01:13:57.947Z,37.34
2023-04-25T01:14:57.915Z,35.29
2023-04-25T01:15:57.905Z,31.86
2023-04-25T01:16:58.112Z,34.73
2023-04-25T01:17:56.914Z,37.49
2023-04-25T01:18:56.905Z,31.78
2023-04-25T01:19:56.901Z,31.32
2023-04-25T01:20:56.874Z,34.85
2023-04-25T01:21:57.878Z,33.36
2023-04-25T01:22:57.943Z,35.31
2023-04-25T01:23:57.927Z,39.94
2023-04-25T01:24:56.915Z,26.98
2023-04-25T01:25:57.914Z,34.18
2023-04-25T01:26:57.943Z,37.94
2023-04-25T01:27:57.930Z,34.40
2023-04-25T01:28:57.955Z,33.77
2023-04-25T01:29:57.958Z,31.45
2023-04-25T01:30:56.939Z,27.49
2023-04-25T01:31:57.120Z,32.31
2023-04-25T01:32:57.029Z,37.00
2023-04-25T01:33:56.969Z,35.31
2023-04-25T01:34:56.959Z,29.13
2023-04-25T01:35:56.983Z,29.70
2023-04-25T01:36:57.969Z,33.02
2023-04-25T01:37:57.975Z,30.65
2023-04-25T01:38:56.978Z,29.07
2023-04-25T01:39:57.993Z,35.36
2023-04-25T01:40:57.994Z,25.81
2023-04-25T01:41:57.654Z,25.00
2023-04-25T01:42:57.069Z,29.39
2023-04-25T01:43:56.985Z,36.56
2023-04-25T01:44:58.000Z,28.25
2023-04-25T01:45:57.074Z,28.29
2023-04-25T01:46:58.042Z,32.75
2023-04-25T01:47:58.173Z,33.43
2023-04-25T01:48:57.048Z,29.35
2023-04-25T01:49:58.013Z,29.53
2023-04-25T01:50:58.042Z,31.46
2023-04-25T01:51:58.015Z,36.65
2023-04-25T01:52:58.021Z,30.23
2023-04-25T01:54:00.434Z,32.83
2023-04-25T01:54:58.046Z,36.10
2023-04-25T01:55:57.050Z,30.18
2023-04-25T01:56:57.046Z,37.87
2023-04-25T01:57:58.037Z,31.86
2023-04-25T01:58:57.997Z,29.37
2023-04-25T01:59:57.999Z,34.03
2023-04-25T02:00:58.004Z,35.71
2023-04-25T02:01:58.081Z,32.66
2023-04-25T02:02:58.081Z,29.81
2023-04-25T02:03:57.515Z,39.34
2023-04-25T02:04:57.998Z,36.14
2023-04-25T02:05:57.949Z,31.11
2023-04-25T02:06:56.939Z,34.46
2023-04-25T02:07:57.949Z,30.81
2023-04-25T02:08:57.939Z,32.38
2023-04-25T02:09:57.974Z,36.49
2023-04-25T02:10:57.925Z,34.40
2023-04-25T02:11:57.932Z,28.24
2023-04-25T02:12:56.913Z,36.12
2023-04-25T02:13:56.895Z,33.53
2023-04-25T02:14:57.929Z,33.58
2023-04-25T02:15:58.060Z,29.75
2023-04-25T02:16:58.190Z,31.73
2023-04-25T02:17:57.940Z,30.30
2023-04-25T02:18:56.879Z,28.38
2023-04-25T02:19:56.859Z,32.03
2023-04-25T02:20:57.879Z,36.88
2023-04-25T02:21:57.854Z,38.91
2023-04-25T02:22:56.838Z,29.27
2023-04-25T02:23:57.842Z,37.13
2023-04-25T02:24:57.829Z,34.00
2023-04-25T02:25:57.845Z,34.85
2023-04-25T02:26:57.828Z,30.18
2023-04-25T02:27:57.803Z,36.36
2023-04-25T02:28:57.805Z,29.64
2023-04-25T02:29:57.809Z,32.40
2023-04-25T02:30:56.834Z,37.36
2023-04-25T02:31:57.868Z,30.61
2023-04-25T02:32:57.834Z,39.97
2023-04-25T02:33:56.758Z,40.10
2023-04-25T02:34:57.787Z,39.92
2023-04-25T02:35:56.745Z,36.15
2023-04-25T02:36:57.788Z,40.18
2023-04-25T02:37:57.732Z,32.68
2023-04-25T02:38:57.818Z,28.99
2023-04-25T02:39:57.749Z,32.24
2023-04-25T02:40:57.707Z,36.11
2023-04-25T02:41:57.711Z,32.65
2023-04-25T02:42:57.784Z,36.88
2023-04-25T02:43:57.698Z,32.74
2023-04-25T02:44:57.705Z,35.37
2023-04-25T02:45:57.684Z,26.70
2023-04-25T02:46:57.671Z,32.31
2023-04-25T02:47:56.704Z,35.97
2023-04-25T02:48:56.662Z,31.77
2023-04-25T02:49:57.649Z,31.71
2023-04-25T02:50:56.747Z,30.86
2023-04-25T02:51:57.658Z,33.23
2023-04-25T02:52:56.653Z,36.74
2023-04-25T02:53:57.658Z,30.50
2023-04-25T02:54:57.650Z,39.81
2023-04-25T02:55:57.655Z,32.16
2023-04-25T02:56:57.611Z,34.80
2023-04-25T02:57:56.610Z,35.20
2023-04-25T02:58:56.587Z,29.31
2023-04-25T02:59:57.611Z,26.52
2023-04-25T03:00:56.611Z,35.93
2023-04-25T03:01:57.570Z,32.71
2023-04-25T03:02:57.646Z,29.78
2023-04-25T03:03:56.631Z,40.16
2023-04-25T03:04:56.541Z,39.63
2023-04-25T03:05:56.532Z,33.30
2023-04-25T03:06:57.549Z,33.43
2023-04-25T03:07:57.535Z,28.61
2023-04-25T03:08:57.534Z,33.33
2023-04-25T03:09:57.515Z,34.30
2023-04-25T03:10:56.519Z,38.05
2023-04-25T03:11:57.492Z,30.80
2023-04-25T03:12:56.491Z,39.36
2023-04-25T03:13:57.490Z,30.89
2023-04-25T03:14:56.489Z,31.09
2023-04-25T03:15:56.475Z,32.87
2023-04-25T03:16:57.550Z,34.15
2023-04-25T03:17:57.480Z,33.53
2023-04-25T03:18:56.433Z,34.41
2023-04-25T03:19:57.431Z,40.97
2023-04-25T03:20:57.434Z,34.27
2023-04-25T03:21:57.423Z,33.70
2023-04-25T03:22:57.419Z,39.97
2023-04-25T03:23:57.416Z,32.88
2023-04-25T03:24:57.433Z,35.93
2023-04-25T03:25:56.411Z,38.85
2023-04-25T03:26:56.431Z,40.08
2023-04-25T03:27:57.403Z,43.03
2023-04-25T03:28:56.614Z,40.76
2023-04-25T03:29:56.411Z,36.25
2023-04-25T03:30:57.382Z,38.20
2023-04-25T03:31:57.647Z,40.50
2023-04-25T03:32:57.378Z,38.05
2023-04-25T03:33:57.375Z,39.59
2023-04-25T03:34:57.352Z,41.84
2023-04-25T03:35:57.336Z,44.80
2023-04-25T03:36:57.358Z,41.08
2023-04-25T03:37:57.319Z,44.47
2023-04-25T03:38:56.307Z,44.21
2023-04-25T03:39:57.315Z,43.39
2023-04-25T03:40:57.373Z,46.51
2023-04-25T03:41:57.274Z,40.28
2023-04-25T03:42:57.264Z,47.59
2023-04-25T03:43:56.279Z,48.10
2023-04-25T03:44:56.267Z,40.15
2023-04-25T03:45:56.293Z,43.63
2023-04-25T03:46:56.264Z,39.40
2023-04-25T03:47:56.327Z,43.23
2023-04-25T03:48:56.238Z,45.60
2023-04-25T03:49:57.229Z,46.41
2023-04-25T03:50:57.221Z,40.97
2023-04-25T03:51:57.231Z,43.72
2023-04-25T03:52:57.232Z,44.27
2023-04-25T03:53:57.220Z,40.15
2023-04-25T03:54:56.298Z,50.08
2023-04-25T03:55:57.187Z,45.25
2023-04-25T03:56:56.193Z,41.96
2023-04-25T03:57:57.181Z,42.20
2023-04-25T03:58:57.185Z,40.53
2023-04-25T03:59:56.184Z,46.43
2023-04-25T04:00:57.220Z,46.69
2023-04-25T04:01:57.154Z,45.01
2023-04-25T04:02:56.263Z,40.04
2023-04-25T04:03:56.787Z,45.24
2023-04-25T04:04:57.240Z,43.15
2023-04-25T04:05:56.206Z,42.46
2023-04-25T04:06:57.122Z,42.99
2023-04-25T04:07:56.124Z,40.30
2023-04-25T04:08:57.094Z,48.25
2023-04-25T04:09:57.103Z,46.77
2023-04-25T04:10:56.094Z,44.52
2023-04-25T04:11:57.106Z,40.88
2023-04-25T04:12:56.129Z,42.65
2023-04-25T04:13:57.111Z,40.26
2023-04-25T04:14:57.115Z,46.05
2023-04-25T04:15:57.174Z,41.91
2023-04-25T04:16:57.134Z,43.19
2023-04-25T04:17:56.262Z,41.29
2023-04-25T04:18:56.177Z,44.45
2023-04-25T04:19:56.198Z,42.40
2023-04-25T04:20:56.243Z,48.00
2023-04-25T04:21:57.244Z,46.30
2023-04-25T04:22:57.258Z,46.21
2023-04-25T04:23:56.323Z,40.34
2023-04-25T04:24:57.321Z,40.11
2023-04-25T04:25:56.409Z,42.66
2023-04-25T04:26:56.340Z,41.96
2023-04-25T04:27:57.522Z,46.48
2023-04-25T04:28:57.337Z,41.63
2023-04-25T04:29:56.316Z,46.19
2023-04-25T04:30:57.342Z,47.99
2023-04-25T04:31:57.392Z,42.95
2023-04-25T04:32:57.476Z,44.41
2023-04-25T04:33:56.320Z,41.60
2023-04-25T04:34:57.328Z,41.85
2023-04-25T04:35:57.346Z,42.25
2023-04-25T04:36:57.351Z,41.18
2023-04-25T04:37:57.368Z,43.94
2023-04-25T04:38:57.422Z,41.07
2023-04-25T04:39:57.495Z,45.51
2023-04-25T04:40:57.501Z,45.36
2023-04-25T04:41:57.479Z,43.86
2023-04-25T04:42:56.455Z,40.73
2023-04-25T04:43:57.502Z,42.43
2023-04-25T04:44:57.477Z,42.89
2023-04-25T04:45:56.484Z,44.92
2023-04-25T04:46:56.549Z,40.74
2023-04-25T04:47:57.537Z,39.75
2023-04-25T04:48:56.526Z,43.64
2023-04-25T04:49:56.548Z,42.70
2023-04-25T04:50:57.567Z,40.69
2023-04-25T04:51:59.638Z,37.84
2023-04-25T04:52:57.568Z,41.48
2023-04-25T04:53:57.576Z,43.18
2023-04-25T04:54:57.564Z,41.30
2023-04-25T04:55:57.589Z,39.19
2023-04-25T04:56:56.547Z,45.04
2023-04-25T04:57:56.565Z,41.79
2023-04-25T04:58:57.556Z,39.14
2023-04-25T04:59:57.562Z,44.25
2023-04-25T05:00:56.558Z,41.36
2023-04-25T05:01:57.780Z,39.61
2023-04-25T05:02:57.663Z,38.17
2023-04-25T05:03:56.882Z,42.54
2023-04-25T05:04:57.875Z,38.84
2023-04-25T05:05:57.485Z,39.76
2023-04-25T05:06:57.498Z,39.81
2023-04-25T05:07:56.501Z,34.56
2023-04-25T05:08:56.467Z,42.69
2023-04-25T05:09:57.471Z,37.95
2023-04-25T05:10:57.485Z,40.14
2023-04-25T05:11:56.450Z,35.25
2023-04-25T05:12:57.490Z,35.59
2023-04-25T05:13:57.434Z,39.74
2023-04-25T05:14:56.441Z,36.83
2023-04-25T05:15:56.435Z,36.92
2023-04-25T05:16:57.520Z,37.34
2023-04-25T05:17:56.511Z,37.42
2023-04-25T05:18:56.648Z,35.68
2023-04-25T05:19:57.579Z,35.68
2023-04-25T05:20:56.510Z,42.20
2023-04-25T05:21:56.406Z,38.59
2023-04-25T05:22:57.429Z,36.47
2023-04-25T05:23:57.526Z,40.45
2023-04-25T05:24:57.459Z,44.46
2023-04-25T05:25:56.467Z,44.15
2023-04-25T05:26:57.493Z,41.22
2023-04-25T05:27:56.477Z,46.54
2023-04-25T05:28:56.503Z,45.16
2023-04-25T05:29:56.542Z,44.17
2023-04-25T05:30:57.594Z,40.35
2023-04-25T05:31:56.698Z,52.10
2023-04-25T05:32:56.632Z,56.38
2023-04-25T05:33:57.617Z,49.36
2023-04-25T05:34:57.665Z,47.04
2023-04-25T05:35:57.632Z,49.77
2023-04-25T05:36:56.735Z,52.25
2023-04-25T05:37:56.734Z,48.91
2023-04-25T05:38:57.769Z,43.05
2023-04-25T05:39:56.861Z,48.63
2023-04-25T05:40:57.852Z,42.85
2023-04-25T05:41:57.883Z,56.73
2023-04-25T05:42:56.944Z,51.50
2023-04-25T05:43:58.395Z,51.21
2023-04-25T05:44:58.069Z,57.33
2023-04-25T05:45:58.161Z,118.92
2023-04-25T05:46:57.906Z,101.91
2023-04-25T05:47:58.303Z,67.46
2023-04-25T05:48:57.212Z,52.20
2023-04-25T05:49:58.251Z,55.57
2023-04-25T05:50:58.441Z,42.64
2023-04-25T05:51:58.349Z,34.79
2023-04-25T05:52:58.349Z,96.39
2023-04-25T05:53:58.386Z,97.02
2023-04-25T05:54:57.409Z,84.72
2023-04-25T05:55:57.407Z,76.15
2023-04-25T05:56:58.432Z,83.52
2023-04-25T05:57:57.439Z,61.38
2023-04-25T05:58:58.405Z,50.31
2023-04-25T05:59:57.815Z,95.98
2023-04-25T06:00:57.897Z,100.12
2023-04-25T06:01:58.549Z,104.91
2023-04-25T06:02:59.059Z,58.00
2023-04-25T06:03:58.969Z,76.76
2023-04-25T06:04:57.951Z,84.80
2023-04-25T06:05:59.014Z,76.84
2023-04-25T06:06:58.788Z,86.83
2023-04-25T06:07:58.752Z,88.19
2023-04-25T06:08:58.848Z,87.77
2023-04-25T06:09:57.764Z,88.79
2023-04-25T06:10:58.790Z,88.08
2023-04-25T06:11:58.911Z,89.97
2023-04-25T06:12:58.903Z,88.65
2023-04-25T06:13:58.984Z,87.95
2023-04-25T06:14:59.033Z,92.84
2023-04-25T06:15:59.112Z,91.01
2023-04-25T06:16:58.114Z,94.38
2023-04-25T06:17:58.253Z,93.20
2023-04-25T06:18:59.164Z,92.87
2023-04-25T06:19:59.198Z,99.64
2023-04-25T06:20:58.230Z,92.69
2023-04-25T06:21:59.283Z,96.52
2023-04-25T06:22:58.283Z,100.03
2023-04-25T06:23:58.314Z,97.74
2023-04-25T06:24:59.547Z,98.16
2023-04-25T06:25:59.628Z,104.23
2023-04-25T06:26:58.476Z,95.41
2023-04-25T06:27:58.541Z,108.01
2023-04-25T06:28:59.464Z,106.42
2023-04-25T06:29:58.489Z,106.15
2023-04-25T06:30:58.567Z,105.90
2023-04-25T06:31:59.539Z,103.65
2023-04-25T06:32:59.615Z,106.74
2023-04-25T06:33:59.624Z,107.83
2023-04-25T06:34:58.566Z,97.62
2023-04-25T06:35:59.630Z,103.72
2023-04-25T06:36:59.603Z,103.19
2023-04-25T06:37:59.651Z,94.82
2023-04-25T06:38:58.657Z,94.99
2023-04-25T06:39:58.752Z,97.87
2023-04-25T06:40:59.672Z,93.47
2023-04-25T06:41:59.098Z,91.25
2023-04-25T06:42:58.695Z,89.23
2023-04-25T06:43:59.697Z,90.85
2023-04-25T06:44:58.823Z,95.40
2023-04-25T06:45:59.730Z,89.77
2023-04-25T06:47:00.160Z,90.34
2023-04-25T06:47:59.894Z,91.00
2023-04-25T06:48:59.746Z,100.27
2023-04-25T06:49:58.832Z,97.14
2023-04-25T06:50:59.882Z,96.38
2023-04-25T06:52:00.376Z,100.00
2023-04-25T06:52:59.850Z,110.15
2023-04-25T06:53:58.891Z,133.64
2023-04-25T06:54:59.193Z,163.20
2023-04-25T06:55:58.976Z,172.43
2023-04-25T06:57:00.265Z,188.54
2023-04-25T06:57:59.112Z,189.31
2023-04-25T06:59:00.045Z,195.67
2023-04-25T07:00:02.112Z,204.28
2023-04-25T07:00:59.170Z,225.15
2023-04-25T07:02:00.126Z,227.49
2023-04-25T07:02:59.352Z,237.76
2023-04-25T07:04:00.186Z,244.35
2023-04-25T07:04:59.064Z,232.90
2023-04-25T07:05:59.027Z,215.62
2023-04-25T07:07:06.553Z,200.65
2023-04-25T07:07:58.991Z,201.17
2023-04-25T07:09:00.009Z,202.14
2023-04-25T07:10:00.002Z,197.21
2023-04-25T07:11:00.028Z,199.44
2023-04-25T07:11:59.982Z,182.93
2023-04-25T07:12:59.983Z,173.51
2023-04-25T07:13:59.961Z,171.86
2023-04-25T07:14:59.956Z,175.96
2023-04-25T07:15:59.993Z,166.30
2023-04-25T07:17:00.037Z,158.03
2023-04-25T07:17:59.965Z,159.01
2023-04-25T07:18:59.931Z,162.28
2023-04-25T07:19:58.937Z,147.88
2023-04-25T07:20:58.909Z,146.39
2023-04-25T07:21:58.917Z,146.15
2023-04-25T07:22:58.975Z,136.49
2023-04-25T07:23:58.927Z,139.82
2023-04-25T07:24:59.890Z,133.49
2023-04-25T07:25:59.899Z,126.68
2023-04-25T07:26:59.875Z,120.23
2023-04-25T07:27:59.888Z,119.88
2023-04-25T07:28:59.878Z,118.36
2023-04-25T07:29:59.899Z,120.97
2023-04-25T07:30:59.850Z,116.10
2023-04-25T07:31:58.893Z,113.21
2023-04-25T07:32:59.838Z,109.87
2023-04-25T07:33:59.940Z,109.27
2023-04-25T07:34:58.830Z,114.97
2023-04-25T07:35:59.830Z,111.07
2023-04-25T07:36:59.816Z,112.29
2023-04-25T07:37:59.812Z,108.58
2023-04-25T07:38:59.827Z,103.74
2023-04-25T07:39:59.791Z,117.54
2023-04-25T07:40:59.774Z,112.24
2023-04-25T07:41:58.777Z,110.97
2023-04-25T07:42:59.786Z,109.38
2023-04-25T07:43:59.777Z,108.32
2023-04-25T07:44:58.776Z,103.35
2023-04-25T07:45:58.785Z,108.77
2023-04-25T07:47:00.039Z,123.35
2023-04-25T07:48:00.307Z,113.71
2023-04-25T07:48:59.715Z,88.55
2023-04-25T07:49:59.720Z,40.29
2023-04-25T07:50:59.739Z,25.00
2023-04-25T07:51:59.696Z,56.90
2023-04-25T07:52:58.741Z,75.41
2023-04-25T07:53:59.684Z,90.15
2023-04-25T07:54:59.693Z,104.80
2023-04-25T07:55:58.710Z,123.04
2023-04-25T07:56:59.769Z,126.34
2023-04-25T07:57:59.781Z,128.96
2023-04-25T07:58:59.833Z,145.32
2023-04-25T07:59:59.842Z,152.70
2023-04-25T08:00:59.894Z,145.24
2023-04-25T08:01:59.855Z,174.47
2023-04-25T08:03:00.066Z,160.80
2023-04-25T08:04:00.196Z,165.23
2023-04-25T08:04:58.996Z,167.77
2023-04-25T08:05:59.103Z,157.17
2023-04-25T08:06:59.867Z,160.75
2023-04-25T08:07:59.879Z,157.58
2023-04-25T08:08:58.843Z,162.93
2023-04-25T08:09:59.863Z,158.48
2023-04-25T08:10:59.856Z,155.83
2023-04-25T08:11:59.832Z,160.25
2023-04-25T08:12:59.854Z,152.85
2023-04-25T08:13:59.843Z,153.23
2023-04-25T08:14:58.823Z,151.68
2023-04-25T08:15:59.872Z,156.98
2023-04-25T08:16:59.818Z,150.50
2023-04-25T08:17:59.853Z,147.47
2023-04-25T08:18:59.862Z,150.50
2023-04-25T08:19:58.829Z,143.30
2023-04-25T08:20:58.825Z,146.94
2023-04-25T08:21:59.818Z,144.26
2023-04-25T08:22:59.868Z,140.60
2023-04-25T08:23:59.890Z,144.15
2023-04-25T08:24:59.881Z,134.95
2023-04-25T08:25:59.913Z,136.66
2023-04-25T08:27:00.143Z,136.88
2023-04-25T08:27:58.973Z,135.56
2023-04-25T08:29:00.007Z,136.52
2023-04-25T08:30:00.101Z,137.05
2023-04-25T08:31:00.244Z,137.02
2023-04-25T08:32:00.208Z,137.20
2023-04-25T08:33:00.285Z,140.39
2023-04-25T08:33:59.258Z,139.19
2023-04-25T08:35:00.305Z,136.56
2023-04-25T08:36:00.279Z,140.09
2023-04-25T08:36:59.310Z,143.21
2023-04-25T08:38:00.271Z,143.25
2023-04-25T08:38:59.268Z,145.35
2023-04-25T08:40:00.272Z,143.59
2023-04-25T08:41:00.292Z,148.89
2023-04-25T08:41:59.284Z,151.90
2023-04-25T08:43:00.769Z,178.95
2023-04-25T08:44:00.383Z,190.85
2023-04-25T08:44:59.381Z,201.36
2023-04-25T08:45:59.402Z,202.65
2023-04-25T08:47:00.471Z,238.68
2023-04-25T08:48:00.457Z,218.25
2023-04-25T08:49:00.443Z,199.38
2023-04-25T08:50:00.515Z,158.67
2023-04-25T08:51:00.544Z,104.45
2023-04-25T08:52:00.582Z,71.65
2023-04-25T08:53:00.594Z,0.00
2023-04-25T08:54:06.403Z,40.78
2023-04-25T08:55:00.602Z,41.40
2023-04-25T08:55:59.582Z,48.60
2023-04-25T08:57:00.597Z,69.65
2023-04-25T08:57:59.747Z,89.08
2023-04-25T08:59:00.588Z,109.56
2023-04-25T08:59:59.575Z,102.93
2023-04-25T09:01:00.565Z,109.77
2023-04-25T09:01:59.691Z,114.52
2023-04-25T09:02:59.823Z,130.47
2023-04-25T09:04:00.636Z,138.18
2023-04-25T09:04:59.528Z,138.51
2023-04-25T09:06:00.553Z,154.77
2023-04-25T09:07:00.523Z,168.84
2023-04-25T09:08:00.916Z,171.15
2023-04-25T09:08:59.502Z,174.55
2023-04-25T09:10:00.512Z,165.79
2023-04-25T09:10:59.490Z,164.99
2023-04-25T09:12:00.494Z,166.09
2023-04-25T09:13:00.516Z,173.05
2023-04-25T09:14:00.496Z,166.14
2023-04-25T09:14:59.617Z,166.50
2023-04-25T09:16:00.518Z,166.20
2023-04-25T09:17:00.707Z,163.61
2023-04-25T09:18:00.572Z,166.65
2023-04-25T09:19:00.449Z,168.33
2023-04-25T09:20:00.467Z,159.18
2023-04-25T09:21:02.233Z,159.49
2023-04-25T09:22:00.438Z,159.80
2023-04-25T09:23:00.413Z,160.49
2023-04-25T09:24:00.410Z,160.25
2023-04-25T09:25:00.393Z,161.08
2023-04-25T09:26:00.378Z,162.58
2023-04-25T09:27:00.378Z,158.98
2023-04-25T09:27:59.366Z,158.97
2023-04-25T09:29:00.381Z,160.62
2023-04-25T09:29:59.385Z,158.97
2023-04-25T09:30:59.407Z,156.36
2023-04-25T09:31:59.351Z,157.76
2023-04-25T09:33:00.370Z,161.14
2023-04-25T09:34:00.489Z,162.08
2023-04-25T09:34:59.312Z,155.09
2023-04-25T09:36:00.328Z,153.10
2023-04-25T09:37:00.322Z,152.44
2023-04-25T09:38:00.316Z,151.12
2023-04-25T09:39:00.296Z,150.82
2023-04-25T09:40:00.297Z,151.16
2023-04-25T09:41:00.297Z,148.30
2023-04-25T09:42:00.279Z,146.72
2023-04-25T09:42:59.285Z,151.27
2023-04-25T09:43:59.514Z,156.29
2023-04-25T09:45:00.331Z,157.98
2023-04-25T09:46:00.375Z,160.82
2023-04-25T09:47:00.367Z,143.39
2023-04-25T09:47:59.355Z,111.63
2023-04-25T09:48:59.243Z,54.38
2023-04-25T09:49:59.248Z,23.11
2023-04-25T09:51:00.240Z,1.67
2023-04-25T09:51:59.218Z,41.61
2023-04-25T09:53:00.252Z,54.43
2023-04-25T09:54:00.194Z,57.91
2023-04-25T09:55:00.180Z,67.27
2023-04-25T09:56:00.173Z,74.77
2023-04-25T09:56:59.187Z,84.60
2023-04-25T09:58:00.205Z,102.55
2023-04-25T09:59:00.191Z,114.23
2023-04-25T10:00:00.225Z,120.01
2023-04-25T10:00:59.181Z,130.17
2023-04-25T10:02:00.174Z,137.90
2023-04-25T10:02:59.299Z,142.87
2023-04-25T10:04:00.513Z,148.41
2023-04-25T10:04:59.171Z,155.22
2023-04-25T10:05:59.134Z,154.29
2023-04-25T10:06:59.223Z,157.66
2023-04-25T10:08:00.140Z,162.01
2023-04-25T10:09:00.139Z,161.10
2023-04-25T10:09:59.084Z,166.69
2023-04-25T10:10:59.091Z,168.34
2023-04-25T10:12:00.111Z,168.34
2023-04-25T10:13:00.113Z,167.19
2023-04-25T10:14:00.094Z,172.87
2023-04-25T10:15:00.098Z,174.52
2023-04-25T10:16:00.057Z,170.93
2023-04-25T10:16:59.049Z,175.19
2023-04-25T10:18:00.160Z,176.12
2023-04-25T10:18:59.052Z,174.14
2023-04-25T10:20:00.024Z,171.13
2023-04-25T10:20:59.021Z,171.91
2023-04-25T10:22:00.135Z,173.00
2023-04-25T10:23:00.014Z,171.03
2023-04-25T10:23:59.993Z,175.09
2023-04-25T10:24:59.037Z,174.19
2023-04-25T10:26:00.091Z,180.14
2023-04-25T10:26:59.092Z,179.03
2023-04-25T10:28:00.182Z,179.20
2023-04-25T10:28:59.191Z,181.25
2023-04-25T10:29:59.253Z,184.10
2023-04-25T10:30:59.366Z,183.69
2023-04-25T10:32:00.497Z,184.83
2023-04-25T10:33:00.436Z,188.11
2023-04-25T10:34:00.445Z,187.09
2023-04-25T10:35:00.562Z,186.89
2023-04-25T10:36:00.541Z,185.00
2023-04-25T10:36:59.525Z,180.30
2023-04-25T10:38:00.597Z,173.87
2023-04-25T10:38:59.508Z,177.63
2023-04-25T10:40:00.519Z,177.41
2023-04-25T10:40:59.503Z,180.67
2023-04-25T10:41:59.551Z,186.98
2023-04-25T10:42:59.506Z,192.55
2023-04-25T10:44:00.822Z,193.33
2023-04-25T10:45:00.523Z,194.61
2023-04-25T10:45:59.532Z,197.46
2023-04-25T10:47:00.661Z,200.17
2023-04-25T10:48:00.579Z,196.62
2023-04-25T10:49:00.545Z,204.09
2023-04-25T10:50:00.620Z,204.37
2023-04-25T10:51:00.670Z,201.63
2023-04-25T10:51:59.678Z,197.90
2023-04-25T10:53:00.804Z,201.68
2023-04-25T10:54:00.794Z,198.28
2023-04-25T10:55:00.891Z,198.52
2023-04-25T10:56:00.905Z,196.37
2023-04-25T10:56:59.972Z,193.91
2023-04-25T10:58:00.018Z,193.83
2023-04-25T10:59:00.009Z,192.33
2023-04-25T11:00:01.038Z,190.07
2023-04-25T11:01:01.124Z,192.86
2023-04-25T11:02:01.250Z,190.94
2023-04-25T11:03:00.353Z,190.97
2023-04-25T11:04:00.502Z,185.58
2023-04-25T11:05:00.236Z,183.94
2023-04-25T11:06:01.260Z,182.77
2023-04-25T11:07:06.372Z,181.39
2023-04-25T11:08:07.729Z,181.48
2023-04-25T11:09:01.304Z,181.70
2023-04-25T11:10:01.314Z,181.93
2023-04-25T11:11:01.277Z,181.56
2023-04-25T11:12:01.259Z,181.85
2023-04-25T11:13:01.266Z,182.14
2023-04-25T11:14:00.252Z,177.04
2023-04-25T11:15:01.263Z,178.48
2023-04-25T11:16:07.549Z,180.03
2023-04-25T11:17:01.454Z,180.17
2023-04-25T11:18:00.343Z,180.70
2023-04-25T11:19:00.236Z,179.25
2023-04-25T11:20:01.204Z,179.59
2023-04-25T11:21:01.215Z,186.20
2023-04-25T11:22:00.198Z,178.66
2023-04-25T11:23:00.229Z,178.92
2023-04-25T11:24:01.186Z,182.07
2023-04-25T11:25:01.192Z,182.49
2023-04-25T11:26:00.173Z,183.00
2023-04-25T11:27:01.163Z,187.82
2023-04-25T11:28:01.159Z,180.59
2023-04-25T11:29:01.140Z,178.01
2023-04-25T11:30:00.335Z,179.96
2023-04-25T11:31:01.166Z,174.19
2023-04-25T11:32:00.206Z,174.43
2023-04-25T11:33:00.159Z,173.37
2023-04-25T11:34:01.139Z,171.21
2023-04-25T11:35:01.113Z,173.65
2023-04-25T11:36:01.112Z,174.94
2023-04-25T11:37:01.109Z,174.88
2023-04-25T11:38:01.087Z,168.39
2023-04-25T11:39:01.320Z,157.29
2023-04-25T11:40:01.111Z,155.57
2023-04-25T11:41:00.074Z,157.06
2023-04-25T11:42:01.434Z,161.44
2023-04-25T11:43:00.065Z,157.87
2023-04-25T11:44:00.044Z,159.94
2023-04-25T11:45:01.047Z,160.98
2023-04-25T11:46:00.189Z,160.05
2023-04-25T11:47:01.177Z,158.02
2023-04-25T11:48:01.294Z,161.86
2023-04-25T11:49:00.284Z,162.43
2023-04-25T11:50:01.351Z,162.26
2023-04-25T11:51:00.412Z,160.65
2023-04-25T11:52:00.484Z,160.68
2023-04-25T11:53:00.538Z,162.50
2023-04-25T11:54:00.585Z,164.00
2023-04-25T11:55:01.723Z,161.30
2023-04-25T11:56:01.712Z,160.85
2023-04-25T11:57:00.766Z,162.07
2023-04-25T11:58:01.829Z,159.98
2023-04-25T11:59:01.936Z,156.82
2023-04-25T12:00:01.946Z,159.22
2023-04-25T12:01:01.030Z,158.85
2023-04-25T12:02:01.061Z,160.51
2023-04-25T12:03:01.212Z,158.76
2023-04-25T12:04:01.355Z,158.20
2023-04-25T12:05:15.840Z,154.70
2023-04-25T12:06:02.402Z,154.88
2023-04-25T12:07:01.354Z,155.39
2023-04-25T12:08:01.195Z,151.18
2023-04-25T12:09:02.153Z,155.24
2023-04-25T12:10:02.378Z,153.19
2023-04-25T12:11:02.172Z,150.14
2023-04-25T12:12:02.130Z,148.06
2023-04-25T12:13:01.125Z,152.30
2023-04-25T12:14:01.126Z,149.89
2023-04-25T12:15:01.137Z,152.33
2023-04-25T12:16:01.194Z,149.15
2023-04-25T12:17:02.223Z,150.19
2023-04-25T12:18:01.276Z,147.16
2023-04-25T12:19:02.288Z,147.70
2023-04-25T12:20:02.355Z,144.00
2023-04-25T12:21:02.397Z,143.62
2023-04-25T12:22:01.439Z,146.77
2023-04-25T12:23:01.484Z,147.53
2023-04-25T12:24:01.523Z,147.04
2023-04-25T12:25:01.561Z,142.72
2023-04-25T12:26:02.592Z,144.86
2023-04-25T12:27:02.711Z,147.52
2023-04-25T12:28:02.682Z,145.86
2023-04-25T12:29:01.737Z,145.23
2023-04-25T12:30:01.798Z,122.99
2023-04-25T12:31:02.867Z,25.00
2023-04-25T12:32:02.905Z,67.66
2023-04-25T12:33:02.970Z,92.78
2023-04-25T12:34:02.988Z,102.55
2023-04-25T12:35:03.051Z,117.14
2023-04-25T12:36:04.428Z,121.86
2023-04-25T12:37:03.065Z,123.54
2023-04-25T12:38:03.052Z,128.53
2023-04-25T12:39:02.040Z,131.14
2023-04-25T12:40:02.038Z,128.99
2023-04-25T12:41:02.051Z,129.32
2023-04-25T12:42:02.020Z,125.25